Latest Weather Observations for Glen Innes Airport

IDN60801

Issued at 9:34 pm EDT Friday 30 January 2015 (issued every 30 minutes, with the page automatically refreshed every 10 minutes)

About weather observations | Map of weather stations | Latest weather observations for NSW | Other Formats
Station Details ID: 056243 Name: GLEN INNES AIRPORT AWS Lat: -29.68 Lon: 151.69 Height: 1044.3 m
Data from the previous 72 hours. | See also: Recent months for locations in New South Wales
Date/Time
EDT
Temp
°C
App
Temp
°C
Dew
Point
Rel
Hum
%
Delta-T
°C
Wind Press
QNH
hPa
Press
MSL
hPa
Rain
since 9 am
mm
Dir
 
Spd
km/h
Gust
km/h
Spd
kts
Gust
kts
30/09:30pm 12.8 11.4 8.9 77 2.1 W 6 6 3 3 1011.5 1005.7 0.0
30/09:00pm 15.5 14.1 9.4 67 3.3 W 7 7 4 4 1011.5 1005.7 0.0
30/08:30pm 16.6 14.9 9.8 64 3.8 WNW 9 11 5 6 1011.3 1005.5 0.0
30/08:00pm 17.4 15.6 9.6 60 4.3 W 9 11 5 6 1011.2 1005.4 0.0
30/07:30pm 20.1 16.3 9.1 49 6.1 W 19 22 10 12 1011.0 1005.2 0.0
30/07:00pm 21.0 17.3 9.3 47 6.6 W 19 24 10 13 1010.6 1004.8 0.0
30/06:30pm 21.6 18.1 10.1 48 6.6 W 19 24 10 13 1010.4 1004.6 0.0
30/06:00pm 21.9 18.3 10.7 49 6.5 W 20 30 11 16 1010.3 1004.5 0.0
30/05:30pm 21.6 17.0 9.8 47 6.7 W 24 32 13 17 1010.2 1004.4 0.0
30/05:00pm 22.1 17.4 9.3 44 7.2 W 24 35 13 19 1010.3 1004.5 0.0
30/04:30pm 22.2 17.2 9.7 45 7.1 WSW 26 35 14 19 1010.6 1004.8 0.0
30/04:00pm 22.2 17.4 10.4 47 6.8 W 26 37 14 20 1010.9 1005.1 0.0
30/03:48pm 23.5 18.5 10.9 45 7.4 W 28 46 15 25 1010.8 1004.9 0.0
30/03:30pm 22.1 17.4 9.3 44 7.2 W 24 39 13 21 1011.1 1005.3 0.0
30/03:00pm 22.0 16.1 9.2 44 7.2 WSW 30 41 16 22 1011.3 1005.5 0.0
30/02:30pm 20.9 15.3 8.9 46 6.7 WSW 28 39 15 21 1011.5 1005.7 0.0
30/02:00pm 21.3 15.8 9.2 46 6.8 WSW 28 43 15 23 1011.7 1006.0 0.0
30/01:30pm 21.5 16.0 10.6 50 6.3 WNW 30 39 16 21 1011.9 1006.1 0.0
30/01:00pm 21.0 17.4 10.5 51 6.0 W 20 37 11 20 1012.4 1006.6 0.0
30/12:30pm 19.5 15.0 10.0 54 5.4 W 24 35 13 19 1012.7 1007.0 0.0
30/12:00pm 19.2 14.3 9.9 55 5.2 WSW 26 35 14 19 1012.9 1007.1 0.0
30/11:30am 18.8 13.9 10.1 57 4.9 W 26 35 14 19 1013.0 1007.2 0.0
30/11:00am 18.9 13.4 10.5 58 4.8 WNW 30 41 16 22 1013.1 1007.3 0.0
30/10:30am 18.0 14.3 12.7 71 3.1 WNW 24 33 13 18 1013.1 1007.3 0.0
30/10:00am 18.2 14.3 12.0 67 3.6 NW 24 32 13 17 1013.0 1007.2 0.0
30/09:30am 17.5 14.5 13.6 78 2.3 NW 22 30 12 16 1013.0 1007.2 0.0
30/09:00am 16.8 14.0 13.1 79 2.2 NW 20 28 11 15 1013.0 1007.2 0.0
30/08:30am 14.7 13.7 12.4 86 1.3 NNW 9 13 5 7 1013.1 1007.3 0.0
30/08:00am 13.4 12.3 11.8 90 0.9 NNW 9 11 5 6 1013.1 1007.3 0.0
30/07:30am 12.8 12.1 11.9 94 0.5 N 7 11 4 6 1013.0 1007.2 0.0
30/07:00am 12.6 11.5 11.8 95 0.5 N 9 11 5 6 1012.6 1006.9 0.0
30/06:30am 12.5 11.3 11.6 94 0.5 N 9 13 5 7 1012.3 1006.5 0.0
30/06:00am 12.6 11.8 11.7 94 0.5 N 7 11 4 6 1012.1 1006.3 0.0
30/05:30am 12.7 12.1 11.6 93 0.6 NNE 6 9 3 5 1012.0 1006.2 0.0
30/05:00am 12.9 12.1 11.6 92 0.7 NNE 7 11 4 6 1012.0 1006.2 0.0
30/04:30am 13.3 12.2 11.9 91 0.8 NNE 9 13 5 7 1012.1 1006.3 0.0
30/04:00am 13.4 12.0 12.1 92 0.7 NE 11 15 6 8 1012.2 1006.4 0.0
30/03:30am 13.2 12.7 12.6 96 0.3 SE 7 11 4 6 1012.5 1006.8 0.0
30/03:00am 12.7 12.2 12.2 97 0.3 SE 6 7 3 4 1012.6 1006.9 0.0
30/02:30am 11.1 10.0 10.6 97 0.3 SE 7 9 4 5 1013.1 1007.3 0.0
30/02:00am 9.2 7.1 8.3 94 0.5 SE 9 11 5 6 1013.3 1007.5 0.0
30/01:30am 8.8 6.9 7.6 92 0.6 ESE 7 9 4 5 1013.5 1007.8 0.0
30/01:00am 9.8 7.7 8.4 91 0.7 SSE 9 13 5 7 1013.6 1007.9 0.0
30/12:30am 10.5 8.7 9.6 94 0.5 SSE 9 11 5 6 1014.0 1008.2 0.0
30/12:00am 10.2 8.5 8.5 89 0.9 SE 7 9 4 5 1014.0 1008.2 0.0
 
Date/Time
EDT
Temp
°C
App
Temp
°C
Dew
Point
Rel
Hum
%
Delta-T
°C
Wind Press
QNH
hPa
Press
MSL
hPa
Rain
since 9 am
mm
Dir
 
Spd
km/h
Gust
km/h
Spd
kts
Gust
kts
29/11:30pm 10.9 9.5 8.8 87 1.1 ESE 6 9 3 5 1014.2 1008.4 0.0
29/11:00pm 10.9 8.8 8.3 84 1.3 ESE 9 9 5 5 1014.2 1008.4 0.0
29/10:30pm 11.0 8.8 7.9 81 1.6 SE 9 9 5 5 1014.3 1008.6 0.0
29/10:00pm 12.3 9.8 8.4 77 2.0 ESE 11 13 6 7 1014.1 1008.3 0.0
29/09:30pm 14.2 11.6 7.7 65 3.4 SSW 11 13 6 7 1013.9 1008.1 0.0
29/09:00pm 15.1 12.5 7.6 61 3.9 SSW 11 13 6 7 1013.7 1008.0 0.0
29/08:30pm 15.5 12.5 7.5 59 4.2 S 13 13 7 7 1013.4 1007.7 0.0
29/08:00pm 17.2 14.5 7.3 52 5.2 SW 11 15 6 8 1013.0 1007.2 0.0
29/07:30pm 19.1 15.6 7.2 46 6.4 SW 15 20 8 11 1012.6 1006.9 0.0
29/07:00pm 18.9 15.6 8.0 49 5.9 SW 15 20 8 11 1012.2 1006.4 0.0
29/06:30pm 21.3 18.1 6.8 39 7.8 SSW 13 19 7 10 1011.7 1006.0 0.0
29/06:00pm 20.6 16.9 6.2 39 7.6 SW 15 20 8 11 1011.5 1005.7 0.0
29/05:30pm 20.7 17.2 7.0 41 7.4 SSW 15 17 8 9 1011.5 1005.7 0.0
29/05:00pm 22.5 19.1 7.5 38 8.2 WSW 15 20 8 11 1011.5 1005.7 0.0
29/04:30pm 22.4 17.4 6.6 36 8.5 SW 22 33 12 18 1011.6 1005.8 0.0
29/04:00pm 21.8 16.8 6.5 37 8.2 WSW 22 30 12 16 1011.6 1005.8 0.0
29/03:30pm 22.7 17.8 6.9 36 8.6 WSW 22 33 12 18 1011.5 1005.7 0.0
29/03:00pm 21.7 16.9 7.5 40 7.7 WSW 22 37 12 20 1011.7 1006.0 0.0
29/02:30pm 21.4 16.7 6.1 37 8.1 W 20 33 11 18 1012.0 1006.2 0.0
29/02:00pm 21.1 16.9 8.4 44 7.0 WSW 20 33 11 18 1012.1 1006.3 0.0
29/01:30pm 21.1 17.7 10.6 51 6.0 WSW 19 30 10 16 1012.4 1006.6 0.0
29/01:00pm 20.8 16.9 9.4 48 6.4 WSW 20 30 11 16 1012.7 1007.0 0.0
29/12:30pm 20.4 15.0 8.1 45 6.7 WSW 26 33 14 18 1013.3 1007.5 0.0
29/12:00pm 20.4 16.6 9.9 51 5.9 W 20 30 11 16 1013.4 1007.7 0.0
29/11:30am 20.3 16.1 8.3 46 6.6 W 20 30 11 16 1013.3 1007.5 0.0
29/11:00am 20.3 17.4 8.3 46 6.6 W 13 26 7 14 1013.5 1007.8 0.0
29/10:30am 18.2 16.8 9.0 55 5.1 S 6 9 3 5 1013.7 1008.0 0.0
29/10:00am 17.8 16.1 9.9 60 4.4 SSE 9 15 5 8 1013.7 1008.0 0.0
29/09:30am 16.7 14.3 10.1 65 3.7 SE 13 19 7 10 1013.5 1007.8 0.0
29/09:00am 15.6 12.4 9.9 69 3.1 SE 17 22 9 12 1013.6 1007.9 0.0
29/08:30am 14.6 10.9 9.6 72 2.7 SE 19 24 10 13 1013.5 1007.8 0.0
29/08:00am 13.4 9.7 9.3 76 2.2 SE 19 26 10 14 1013.4 1007.7 0.0
29/07:30am 12.0 9.0 9.2 83 1.5 ESE 15 17 8 9 1013.1 1007.3 0.0
29/07:00am 11.2 8.1 8.8 85 1.3 ESE 15 20 8 11 1012.7 1007.0 0.0
29/06:30am 10.5 6.8 8.1 85 1.2 ESE 17 22 9 12 1012.3 1006.5 0.0
29/06:00am 10.1 6.3 7.5 84 1.3 ESE 17 20 9 11 1012.0 1006.2 0.0
29/05:30am 9.8 6.0 7.4 85 1.2 SE 17 20 9 11 1011.9 1006.1 0.0
29/05:00am 9.8 5.5 7.2 84 1.3 ESE 19 22 10 12 1011.6 1005.8 0.0
29/04:30am 10.3 6.0 7.2 81 1.6 SE 19 22 10 12 1011.5 1005.7 0.0
29/04:00am 10.5 6.6 7.2 80 1.7 SE 17 20 9 11 1011.5 1005.7 0.0
29/03:30am 10.8 6.5 6.9 77 2.0 ESE 19 24 10 13 1011.5 1005.7 0.0
29/03:00am 10.4 6.3 6.4 76 2.0 ESE 17 20 9 11 1011.7 1006.0 0.0
29/02:30am 11.6 7.1 6.3 70 2.6 SE 19 30 10 16 1012.0 1006.2 0.0
29/02:00am 12.1 6.8 7.0 71 2.6 SE 24 33 13 18 1012.1 1006.3 0.0
29/01:30am 11.9 7.7 8.4 79 1.8 SE 20 28 11 15 1012.3 1006.5 0.0
29/01:00am 11.2 7.7 8.8 85 1.3 ESE 17 20 9 11 1012.9 1007.1 0.0
29/12:30am 11.8 7.9 8.5 80 1.7 ESE 19 24 10 13 1013.2 1007.4 0.0
29/12:00am 12.5 8.0 8.6 77 2.1 SE 22 30 12 16 1013.4 1007.7 0.0
 
Date/Time
EDT
Temp
°C
App
Temp
°C
Dew
Point
Rel
Hum
%
Delta-T
°C
Wind Press
QNH
hPa
Press
MSL
hPa
Rain
since 9 am
mm
Dir
 
Spd
km/h
Gust
km/h
Spd
kts
Gust
kts
28/11:30pm 12.9 7.4 9.0 77 2.1 ESE 28 37 15 20 1012.9 1007.1 0.0
28/11:00pm 13.2 7.7 9.3 77 2.1 SE 28 37 15 20 1013.2 1007.4 0.0
28/10:30pm 13.2 7.8 9.6 79 1.9 SE 28 35 15 19 1013.3 1007.5 0.0
28/10:00pm 13.6 8.7 9.8 78 2.1 SE 26 33 14 18 1013.5 1007.8 0.0
28/09:30pm 14.1 9.7 10.5 79 2.0 SE 24 32 13 17 1013.4 1007.7 0.0
28/09:00pm 14.3 9.2 10.5 78 2.1 SE 28 41 15 22 1013.0 1007.2 0.0
28/08:30pm 14.0 9.9 11.3 84 1.5 ESE 24 33 13 18 1012.5 1006.8 0.0
28/08:00pm 13.7 9.1 11.0 84 1.5 ESE 26 33 14 18 1012.2 1006.4 0.0
28/07:30pm 13.8 8.9 11.3 85 1.4 ESE 28 37 15 20 1012.2 1006.4 0.0
28/07:00pm 13.6 7.7 11.1 85 1.4 ESE 33 43 18 23 1011.9 1006.1 0.0
28/06:37pm 15.1 9.9 11.5 79 2.0 ESE 30 48 16 26 1011.9 1006.1 0.0
28/06:30pm 15.3 11.2 12.6 84 1.6 E 26 33 14 18 1011.5 1005.7 0.0
28/06:00pm 16.0 11.8 12.4 79 2.1 ESE 26 33 14 18 1011.3 1005.5 0.0
28/05:30pm 17.6 13.1 12.5 72 3.0 ESE 28 37 15 20 1010.8 1004.9 0.0
28/05:00pm 18.3 14.8 13.4 73 2.9 E 24 35 13 19 1010.9 1005.1 0.0
28/04:30pm 18.2 14.6 13.1 72 3.0 E 24 32 13 17 1010.8 1004.9 0.0
28/04:00pm 19.4 15.9 14.6 74 2.9 ESE 26 32 14 17 1010.9 1005.1 0.0
28/03:30pm 18.3 14.2 13.8 75 2.7 ESE 28 35 15 19 1011.2 1005.4 0.0
28/03:00pm 18.6 15.6 12.6 68 3.5 ESE 20 26 11 14 1011.3 1005.5 0.0
28/02:30pm 19.1 16.0 13.5 70 3.3 ESE 22 32 12 17 1011.3 1005.5 0.0
28/02:00pm 17.6 14.0 13.1 75 2.7 SE 24 33 13 18 1011.6 1005.8 0.0
28/01:30pm 18.7 15.9 13.3 71 3.2 ESE 20 26 11 14 1011.9 1006.1 0.0
28/01:00pm 17.3 14.5 13.2 77 2.4 ESE 20 26 11 14 1011.9 1006.1 0.0
28/12:30pm 17.6 14.8 12.7 73 2.9 ESE 19 24 10 13 1012.0 1006.2 0.0
28/12:00pm 18.2 13.8 11.7 66 3.8 ESE 26 32 14 17 1012.0 1006.2 0.0
28/11:30am 18.5 14.9 12.9 70 3.3 ESE 24 37 13 20 1012.2 1006.4 0.0
28/11:00am 17.7 13.6 12.8 73 2.9 ESE 26 35 14 19 1012.4 1006.6 0.0
28/10:30am 17.3 13.1 12.4 73 2.9 ESE 26 32 14 17 1012.2 1006.4 0.0
28/10:00am 16.2 12.1 12.6 79 2.1 ESE 26 32 14 17 1012.3 1006.5 0.0
28/09:30am 15.4 11.1 12.0 80 1.9 ESE 26 35 14 19 1012.1 1006.3 0.0
28/09:00am 14.8 10.0 11.8 82 1.7 ESE 28 35 15 19 1011.9 1006.1 37.6
28/08:30am 14.4 9.9 11.4 82 1.7 ESE 26 32 14 17 1011.5 1005.7 37.6
28/08:00am 13.9 10.0 10.7 81 1.8 ESE 22 28 12 15 1011.4 1005.6 37.6
28/07:30am 13.6 10.0 10.6 82 1.7 ESE 20 24 11 13 1011.2 1005.4 37.6
28/07:00am 12.4 7.5 10.1 86 1.3 SE 26 35 14 19 1010.8 1004.9 37.6
28/06:30am 12.0 6.8 10.4 90 0.9 ESE 28 35 15 19 1010.4 1004.6 37.6
28/06:00am 11.9 6.8 10.5 91 0.8 ESE 28 37 15 20 1010.2 1004.4 37.6
28/05:30am 12.0 6.8 10.2 89 1.0 ESE 28 37 15 20 1010.0 1004.2 37.6
28/05:00am 12.2 7.5 10.6 90 0.9 ESE 26 35 14 19 1010.2 1004.4 37.6
28/04:30am 12.2 6.5 11.3 94 0.5 ESE 32 44 17 24 1010.0 1004.2 37.6
28/04:00am 12.1 7.2 11.2 94 0.5 ESE 28 37 15 20 1009.9 1004.0 37.6
28/03:30am 12.1 8.3 11.2 94 0.5 ESE 22 33 12 18 1010.0 1004.2 37.6
28/03:18am 12.1 6.4 11.0 93 0.6 E 32 50 17 27 1009.3 1003.5 37.6
28/03:00am 12.0 5.7 10.9 93 0.6 E 35 43 19 23 1008.9 1003.0 37.6
28/02:30am 12.3 6.4 11.2 93 0.6 ESE 33 41 18 22 1010.1 1004.3 37.6
28/02:00am 12.3 6.9 11.0 92 0.7 ESE 30 41 16 22 1010.4 1004.6 37.6
28/01:30am 12.6 5.6 11.3 92 0.7 E 39 52 21 28 1009.9 1004.0 37.6
28/01:20am 12.7 6.2 11.6 93 0.6 E 37 50 20 27 1009.8 1003.9 37.6
28/01:00am 12.7 8.7 11.8 94 0.5 ESE 24 35 13 19 1011.6 1005.8 37.6
28/12:30am 12.7 6.6 11.8 94 0.5 E 35 46 19 25 1011.6 1005.8 37.4
28/12:24am 12.7 7.2 11.8 94 0.5 E 32 44 17 24 1011.9 1006.1 37.4
28/12:00am 12.9 9.8 12.1 95 0.5 E 20 26 11 14 1013.2 1007.4 36.6
 
Date/Time
EDT
Temp
°C
App
Temp
°C
Dew
Point
Rel
Hum
%
Delta-T
°C
Wind Press
QNH
hPa
Press
MSL
hPa
Rain
since 9 am
mm
Dir
 
Spd
km/h
Gust
km/h
Spd
kts
Gust
kts
27/11:30pm 12.9 9.7 12.0 94 0.5 ESE 20 24 11 13 1014.1 1008.3 35.6
27/11:00pm 13.0 9.5 12.1 94 0.5 SE 22 30 12 16 1014.3 1008.6 34.6
27/10:30pm 13.1 10.0 12.2 94 0.5 SE 20 28 11 15 1014.3 1008.6 30.2
27/10:00pm 13.2 10.1 12.3 94 0.5 SE 20 28 11 15 1014.0 1008.2 25.2

Other Formats:

Comma delimited format used in spreadsheet applications
http://www.bom.gov.au/fwo/IDN60801/IDN60801.94588.axf

JavaScript Object Notation format (JSON) in row-major order
http://www.bom.gov.au/fwo/IDN60801/IDN60801.94588.json